createdAt,value
2023-05-09T00:01:16.048Z,2.85
2023-05-09T00:03:44.611Z,2.28
2023-05-09T00:06:13.453Z,2.45
2023-05-09T00:08:42.231Z,1.60
2023-05-09T00:11:10.785Z,2.60
2023-05-09T00:13:39.058Z,2.00
2023-05-09T00:16:09.343Z,1.77
2023-05-09T00:18:37.784Z,2.25
2023-05-09T00:21:06.286Z,3.20
2023-05-09T00:23:34.589Z,1.98
2023-05-09T00:26:02.916Z,2.75
2023-05-09T00:28:31.198Z,2.38
2023-05-09T00:30:59.599Z,2.38
2023-05-09T00:33:29.279Z,2.60
2023-05-09T00:35:57.561Z,1.70
2023-05-09T00:38:25.915Z,1.92
2023-05-09T00:40:54.178Z,2.30
2023-05-09T00:43:23.024Z,1.58
2023-05-09T00:45:51.645Z,1.83
2023-05-09T00:48:20.311Z,2.05
2023-05-09T00:50:52.951Z,1.95
2023-05-09T00:53:21.479Z,2.05
2023-05-09T00:55:50.039Z,2.30
2023-05-09T00:58:19.396Z,2.20
2023-05-09T01:00:47.967Z,2.00
2023-05-09T01:03:16.723Z,3.22
2023-05-09T01:05:51.067Z,3.72
2023-05-09T01:08:27.151Z,3.17
2023-05-09T01:11:00.045Z,2.17
2023-05-09T01:13:30.040Z,2.38
2023-05-09T01:16:06.096Z,2.00
2023-05-09T01:18:36.335Z,2.35
2023-05-09T01:21:07.324Z,2.38
2023-05-09T01:23:52.437Z,3.38
2023-05-09T01:26:22.858Z,2.72
2023-05-09T01:29:02.805Z,2.95
2023-05-09T01:31:33.614Z,2.22
2023-05-09T01:34:04.398Z,3.22
2023-05-09T01:36:33.948Z,2.40
2023-05-09T01:39:04.211Z,2.10
2023-05-09T01:41:33.397Z,2.83
2023-05-09T01:44:04.012Z,2.30
2023-05-09T01:46:33.993Z,2.20
2023-05-09T01:49:03.062Z,2.38
2023-05-09T01:51:32.766Z,2.58
2023-05-09T01:54:02.112Z,2.15
2023-05-09T01:56:31.119Z,2.72
2023-05-09T01:59:00.080Z,2.88
2023-05-09T02:01:28.745Z,1.45
2023-05-09T02:03:59.010Z,2.15
2023-05-09T02:06:29.944Z,2.45
2023-05-09T02:08:58.784Z,2.03
2023-05-09T02:11:27.120Z,1.98
2023-05-09T02:13:55.435Z,2.67
2023-05-09T02:16:23.867Z,1.75
2023-05-09T02:18:52.728Z,1.65
2023-05-09T02:21:22.437Z,2.88
2023-05-09T02:23:50.831Z,2.08
2023-05-09T02:26:19.452Z,2.70
2023-05-09T02:28:48.775Z,2.33
2023-05-09T02:31:18.814Z,2.38
2023-05-09T02:33:47.884Z,2.58
2023-05-09T02:36:16.578Z,2.78
2023-05-09T02:38:46.440Z,2.80
2023-05-09T02:41:15.333Z,1.63
2023-05-09T02:43:43.808Z,1.80
2023-05-09T02:46:12.572Z,2.15
2023-05-09T02:48:40.915Z,3.08
2023-05-09T02:51:09.185Z,3.00
2023-05-09T02:53:37.460Z,3.03
2023-05-09T02:56:07.623Z,2.35
2023-05-09T02:58:35.930Z,2.08
2023-05-09T03:01:04.225Z,2.13
2023-05-09T03:03:34.057Z,2.15
2023-05-09T03:06:02.576Z,3.15
2023-05-09T03:08:31.080Z,2.22
2023-05-09T03:10:59.345Z,3.40
2023-05-09T03:13:28.989Z,2.85
2023-05-09T03:15:57.297Z,2.03
2023-05-09T03:18:25.926Z,3.28
2023-05-09T03:20:54.213Z,2.63
2023-05-09T03:23:23.449Z,2.85
2023-05-09T03:25:51.749Z,2.10
2023-05-09T03:28:20.110Z,2.30
2023-05-09T03:30:49.703Z,2.33
2023-05-09T03:33:18.107Z,3.17
2023-05-09T03:35:46.376Z,2.70
2023-05-09T03:38:14.691Z,2.33
2023-05-09T03:40:42.997Z,2.92
2023-05-09T03:43:11.265Z,1.95
2023-05-09T03:45:39.929Z,1.75
2023-05-09T03:48:09.821Z,2.50
2023-05-09T03:50:38.196Z,2.90
2023-05-09T03:53:06.559Z,2.22
2023-05-09T03:55:34.903Z,2.00
2023-05-09T03:58:03.219Z,2.60
2023-05-09T04:00:31.536Z,2.85
2023-05-09T04:02:59.935Z,3.08
2023-05-09T04:05:29.644Z,2.75
2023-05-09T04:07:58.004Z,2.75
2023-05-09T04:10:26.426Z,2.17
2023-05-09T04:12:54.737Z,1.73
2023-05-09T04:15:23.026Z,2.40
2023-05-09T04:17:51.441Z,2.10
2023-05-09T04:20:19.759Z,2.05
2023-05-09T04:22:49.382Z,2.05
2023-05-09T04:25:17.931Z,2.42
2023-05-09T04:27:46.190Z,2.55
2023-05-09T04:30:14.730Z,3.20
2023-05-09T04:32:45.836Z,2.65
2023-05-09T04:35:14.721Z,3.25
2023-05-09T04:37:43.942Z,2.47
2023-05-09T04:40:14.659Z,2.15
2023-05-09T04:42:43.514Z,2.72
2023-05-09T04:45:12.521Z,3.15
2023-05-09T04:47:41.174Z,2.47
2023-05-09T04:50:10.020Z,1.88
2023-05-09T04:52:38.315Z,3.70
2023-05-09T04:55:06.958Z,2.25
2023-05-09T04:57:36.638Z,2.05
2023-05-09T05:00:07.039Z,2.25
2023-05-09T05:02:35.451Z,2.08
2023-05-09T05:05:11.619Z,2.55
2023-05-09T05:07:40.581Z,2.15
2023-05-09T05:10:09.437Z,2.45
2023-05-09T05:12:39.116Z,2.60
2023-05-09T05:15:07.873Z,2.40
2023-05-09T05:17:36.213Z,2.15
2023-05-09T05:20:06.638Z,2.75
2023-05-09T05:22:35.940Z,2.80
2023-05-09T05:25:05.120Z,3.00
2023-05-09T05:27:33.449Z,1.55
2023-05-09T05:30:03.180Z,2.58
2023-05-09T05:32:31.534Z,2.05
2023-05-09T05:34:59.858Z,1.63
2023-05-09T05:37:28.140Z,2.63
2023-05-09T05:39:56.435Z,2.22
2023-05-09T05:42:24.757Z,2.65
2023-05-09T05:44:53.026Z,1.67
2023-05-09T05:47:22.723Z,1.83
2023-05-09T05:49:51.544Z,1.65
2023-05-09T05:52:19.845Z,1.55
2023-05-09T05:54:49.421Z,1.60
2023-05-09T05:57:17.712Z,2.58
2023-05-09T05:59:46.024Z,1.70
2023-05-09T06:02:14.361Z,3.10
2023-05-09T06:04:44.120Z,2.55
2023-05-09T06:07:12.783Z,1.92
2023-05-09T06:09:41.116Z,2.22
2023-05-09T06:12:09.428Z,1.85
2023-05-09T06:14:37.739Z,3.17
2023-05-09T06:17:06.119Z,2.35
2023-05-09T06:19:34.531Z,2.65
2023-05-09T06:22:04.201Z,2.58
2023-05-09T06:24:36.340Z,1.67
2023-05-09T06:27:05.323Z,1.55
2023-05-09T06:29:33.704Z,2.63
2023-05-09T06:32:02.108Z,2.20
2023-05-09T06:34:30.398Z,2.75
2023-05-09T06:36:58.706Z,2.05
2023-05-09T06:39:28.361Z,2.00
2023-05-09T06:41:56.698Z,2.58
2023-05-09T06:44:24.996Z,2.55
2023-05-09T06:46:53.330Z,2.15
2023-05-09T06:49:21.648Z,2.50
2023-05-09T06:51:49.945Z,2.05
2023-05-09T06:54:18.272Z,1.42
2023-05-09T06:56:47.964Z,2.20
2023-05-09T06:59:16.628Z,1.70
2023-05-09T07:01:44.959Z,1.23
2023-05-09T07:04:13.309Z,2.08
2023-05-09T07:06:41.818Z,2.28
2023-05-09T07:09:10.186Z,1.77
2023-05-09T07:11:38.721Z,1.73
2023-05-09T07:14:08.404Z,2.67
2023-05-09T07:16:37.752Z,2.40
2023-05-09T07:19:06.400Z,1.80
2023-05-09T07:21:34.785Z,2.65
2023-05-09T07:24:03.584Z,3.20
2023-05-09T07:26:31.976Z,2.20
2023-05-09T07:29:00.301Z,1.75
2023-05-09T07:31:30.157Z,2.38
2023-05-09T07:33:58.588Z,2.10
2023-05-09T07:36:26.891Z,2.38
2023-05-09T07:38:55.340Z,2.80
2023-05-09T07:41:23.708Z,3.08
2023-05-09T07:43:52.186Z,2.65
2023-05-09T07:46:20.646Z,2.88
2023-05-09T07:48:50.580Z,2.42
2023-05-09T07:51:18.882Z,3.38
2023-05-09T07:53:47.220Z,2.70
2023-05-09T07:56:15.514Z,2.53
2023-05-09T07:58:43.936Z,2.60
2023-05-09T08:01:12.236Z,2.95
2023-05-09T08:03:40.709Z,2.47
2023-05-09T08:06:11.398Z,3.03
2023-05-09T08:08:39.731Z,3.30
2023-05-09T08:11:08.048Z,2.55
2023-05-09T08:13:36.372Z,2.90
2023-05-09T08:16:04.851Z,2.38
2023-05-09T08:18:33.189Z,2.80
2023-05-09T08:21:01.523Z,3.53
2023-05-09T08:23:31.312Z,2.47
2023-05-09T08:25:59.672Z,3.15
2023-05-09T08:28:28.837Z,2.53
2023-05-09T08:30:58.197Z,2.97
2023-05-09T08:33:26.883Z,2.78
2023-05-09T08:35:56.263Z,3.28
2023-05-09T08:38:25.320Z,2.30
2023-05-09T08:40:55.040Z,2.63
2023-05-09T08:43:25.321Z,2.40
2023-05-09T08:45:56.046Z,2.38
2023-05-09T08:48:24.489Z,3.22
2023-05-09T08:50:53.128Z,2.60
2023-05-09T08:53:22.988Z,2.40
2023-05-09T08:55:52.271Z,2.65
2023-05-09T08:58:22.705Z,2.72
2023-05-09T09:00:51.565Z,2.22
2023-05-09T09:03:19.970Z,2.30
2023-05-09T09:05:49.286Z,2.97
2023-05-09T09:08:18.012Z,2.20
2023-05-09T09:10:47.686Z,1.90
2023-05-09T09:13:16.769Z,2.90
2023-05-09T09:15:47.750Z,2.90
2023-05-09T09:18:19.730Z,2.70
2023-05-09T09:20:49.865Z,2.45
2023-05-09T09:23:20.198Z,2.95
2023-05-09T09:25:48.680Z,2.63
2023-05-09T09:28:17.417Z,2.75
2023-05-09T09:30:49.018Z,2.60
2023-05-09T09:33:21.914Z,3.00
2023-05-09T09:35:51.210Z,2.65
2023-05-09T09:38:20.075Z,2.63
2023-05-09T09:40:54.653Z,1.98
2023-05-09T09:43:28.560Z,2.30
2023-05-09T09:45:58.804Z,3.20
2023-05-09T09:48:27.325Z,2.15
2023-05-09T09:50:57.038Z,2.33
2023-05-09T09:53:25.396Z,2.92
2023-05-09T09:55:53.916Z,2.28
2023-05-09T09:58:24.960Z,2.67
2023-05-09T10:01:08.186Z,2.17
2023-05-09T10:03:37.359Z,1.83
2023-05-09T10:06:05.797Z,2.10
2023-05-09T10:08:34.096Z,2.65
2023-05-09T10:11:02.452Z,2.22
2023-05-09T10:13:31.659Z,2.75
2023-05-09T10:16:01.151Z,2.92
2023-05-09T10:18:32.036Z,3.20
2023-05-09T10:21:03.595Z,2.33
2023-05-09T10:23:32.333Z,2.55
2023-05-09T10:26:07.160Z,2.58
2023-05-09T10:28:36.996Z,2.75
2023-05-09T10:31:09.145Z,1.85
2023-05-09T10:33:40.218Z,2.70
2023-05-09T10:36:09.794Z,2.70
2023-05-09T10:38:39.104Z,2.72
2023-05-09T10:41:07.458Z,2.95
2023-05-09T10:43:36.816Z,2.97
2023-05-09T10:46:05.439Z,2.25
2023-05-09T10:48:34.100Z,2.85
2023-05-09T10:51:04.312Z,2.47
2023-05-09T10:53:55.817Z,3.10
2023-05-09T10:56:24.974Z,2.88
2023-05-09T10:58:53.308Z,3.03
2023-05-09T11:01:32.804Z,2.58
2023-05-09T11:04:01.398Z,2.85
2023-05-09T11:06:45.302Z,2.90
2023-05-09T11:09:29.998Z,2.50
2023-05-09T11:11:58.981Z,2.50
2023-05-09T11:14:34.128Z,2.88
2023-05-09T11:17:04.237Z,3.03
2023-05-09T11:19:36.310Z,2.10
2023-05-09T11:22:12.977Z,3.58
2023-05-09T11:24:41.849Z,3.45
2023-05-09T11:27:16.793Z,2.67
2023-05-09T11:29:46.064Z,3.03
2023-05-09T11:32:16.545Z,3.13
2023-05-09T11:34:45.699Z,3.28
2023-05-09T11:37:17.598Z,3.13
2023-05-09T11:39:59.197Z,3.05
2023-05-09T11:42:27.916Z,3.17
2023-05-09T11:44:56.478Z,2.75
2023-05-09T11:47:24.974Z,3.70
2023-05-09T11:49:53.654Z,3.10
2023-05-09T11:52:23.992Z,3.50
2023-05-09T11:54:52.633Z,2.78
2023-05-09T11:57:21.094Z,2.80
2023-05-09T11:59:50.048Z,3.45
2023-05-09T12:02:18.648Z,2.67
2023-05-09T12:04:47.079Z,2.80
2023-05-09T12:07:17.088Z,3.08
2023-05-09T12:09:46.786Z,3.47
2023-05-09T12:12:17.966Z,2.95
2023-05-09T12:14:46.258Z,3.15
2023-05-09T12:17:14.578Z,3.25
2023-05-09T12:19:42.961Z,2.92
2023-05-09T12:22:11.295Z,3.13
2023-05-09T12:24:39.622Z,2.40
2023-05-09T12:27:09.263Z,3.03
2023-05-09T12:29:38.352Z,2.83
2023-05-09T12:32:07.023Z,3.53
2023-05-09T12:34:35.404Z,2.47
2023-05-09T12:37:03.896Z,3.10
2023-05-09T12:39:32.310Z,2.85
2023-05-09T12:42:01.861Z,3.40
2023-05-09T12:44:31.860Z,2.75
2023-05-09T12:47:01.262Z,3.42
2023-05-09T12:49:29.995Z,2.75
2023-05-09T12:51:58.993Z,3.40
2023-05-09T12:54:28.558Z,2.72
2023-05-09T12:56:58.360Z,3.65
2023-05-09T12:59:28.478Z,2.90
2023-05-09T13:01:59.533Z,2.72
2023-05-09T13:04:28.803Z,3.25
2023-05-09T13:06:58.046Z,3.90
2023-05-09T13:09:27.436Z,2.63
2023-05-09T13:11:56.180Z,2.88
2023-05-09T13:14:24.778Z,2.63
2023-05-09T13:16:53.093Z,2.28
2023-05-09T13:19:22.808Z,2.40
2023-05-09T13:21:52.359Z,3.53
2023-05-09T13:24:20.727Z,2.65
2023-05-09T13:26:49.007Z,3.00
2023-05-09T13:29:17.354Z,3.42
2023-05-09T13:31:45.656Z,2.53
2023-05-09T13:34:14.014Z,2.72
2023-05-09T13:36:43.656Z,3.03
2023-05-09T13:39:11.995Z,3.13
2023-05-09T13:41:40.310Z,2.35
2023-05-09T13:44:08.601Z,2.20
2023-05-09T13:46:37.222Z,2.17
2023-05-09T13:49:06.012Z,2.78
2023-05-09T13:51:34.633Z,2.38
2023-05-09T13:54:08.481Z,2.42
2023-05-09T13:56:36.876Z,3.13
2023-05-09T13:59:05.279Z,2.80
2023-05-09T14:01:33.607Z,2.55
2023-05-09T14:04:02.049Z,2.20
2023-05-09T14:06:30.506Z,2.53
2023-05-09T14:08:58.830Z,2.38
2023-05-09T14:11:28.505Z,2.67
2023-05-09T14:13:56.942Z,2.03
2023-05-09T14:16:25.509Z,2.17
2023-05-09T14:18:53.841Z,2.50
2023-05-09T14:21:22.358Z,2.35
2023-05-09T14:23:51.373Z,2.47
2023-05-09T14:26:20.328Z,2.65
2023-05-09T14:28:50.015Z,2.28
2023-05-09T14:31:18.488Z,1.85
2023-05-09T14:33:46.838Z,2.20
2023-05-09T14:36:15.273Z,2.38
2023-05-09T14:38:44.252Z,2.10
2023-05-09T14:41:12.588Z,2.08
2023-05-09T14:43:40.899Z,2.15
2023-05-09T14:46:10.709Z,2.33
2023-05-09T14:48:39.113Z,2.20
2023-05-09T14:51:07.866Z,1.85
2023-05-09T14:53:39.818Z,1.83
2023-05-09T14:56:08.397Z,2.08
2023-05-09T14:58:36.704Z,1.88
2023-05-09T15:01:05.454Z,1.52
2023-05-09T15:03:35.301Z,1.75
2023-05-09T15:06:03.647Z,1.88
2023-05-09T15:08:31.944Z,2.00
2023-05-09T15:11:00.302Z,1.63
2023-05-09T15:13:28.722Z,2.40
2023-05-09T15:15:57.335Z,1.80
2023-05-09T15:18:28.532Z,2.30
2023-05-09T15:20:58.281Z,1.63
2023-05-09T15:23:26.746Z,2.13
2023-05-09T15:25:55.164Z,2.00
2023-05-09T15:28:23.812Z,2.40
2023-05-09T15:30:52.143Z,2.05
2023-05-09T15:33:20.505Z,1.48
2023-05-09T15:35:50.144Z,1.60
2023-05-09T15:38:19.812Z,1.98
2023-05-09T15:40:48.173Z,2.20
2023-05-09T15:43:16.520Z,1.83
2023-05-09T15:45:45.769Z,2.53
2023-05-09T15:48:14.218Z,1.50
2023-05-09T15:50:43.504Z,2.03
2023-05-09T15:53:11.879Z,2.20
2023-05-09T15:55:42.823Z,1.75
2023-05-09T15:58:11.370Z,1.90
2023-05-09T16:00:39.860Z,1.80
2023-05-09T16:03:08.286Z,1.95
2023-05-09T16:05:37.015Z,1.50
2023-05-09T16:08:05.372Z,1.50
2023-05-09T16:10:36.679Z,1.25
2023-05-09T16:13:06.576Z,1.58
2023-05-09T16:15:35.247Z,1.70
2023-05-09T16:18:03.712Z,1.70
2023-05-09T16:20:32.191Z,1.13
2023-05-09T16:23:03.348Z,1.48
2023-05-09T16:25:32.819Z,1.38
2023-05-09T16:28:02.908Z,1.40
2023-05-09T16:30:32.620Z,1.30
2023-05-09T16:33:01.118Z,1.50
2023-05-09T16:35:29.640Z,1.45
2023-05-09T16:37:58.094Z,1.55
2023-05-09T16:40:26.438Z,1.20
2023-05-09T16:42:54.794Z,3.53
2023-05-09T16:45:23.074Z,1.88
2023-05-09T16:47:54.026Z,1.27
2023-05-09T16:50:22.546Z,1.63
2023-05-09T16:52:50.972Z,1.85
2023-05-09T16:55:19.314Z,2.30
2023-05-09T16:57:47.722Z,1.60
2023-05-09T17:00:16.659Z,1.77
2023-05-09T17:02:45.298Z,1.33
2023-05-09T17:05:15.219Z,1.27
2023-05-09T17:07:43.674Z,1.95
2023-05-09T17:10:12.482Z,1.45
2023-05-09T17:12:40.865Z,1.05
2023-05-09T17:15:11.727Z,1.08
2023-05-09T17:17:40.127Z,1.25
2023-05-09T17:20:10.086Z,2.00
2023-05-09T17:22:39.812Z,1.48
2023-05-09T17:25:08.701Z,1.30
2023-05-09T17:27:37.575Z,2.13
2023-05-09T17:30:06.236Z,1.45
2023-05-09T17:32:34.704Z,1.77
2023-05-09T17:35:03.434Z,1.60
2023-05-09T17:37:31.819Z,1.42
2023-05-09T17:40:01.597Z,1.48
2023-05-09T17:42:29.892Z,1.65
2023-05-09T17:44:58.199Z,1.45
2023-05-09T17:47:26.559Z,1.33
2023-05-09T17:49:55.322Z,1.55
2023-05-09T17:52:23.694Z,1.20
2023-05-09T17:54:52.124Z,1.50
2023-05-09T17:57:22.193Z,1.83
2023-05-09T17:59:51.822Z,1.70
2023-05-09T18:02:23.883Z,1.85
2023-05-09T18:04:53.348Z,1.55
2023-05-09T18:07:22.879Z,2.80
2023-05-09T18:09:51.198Z,1.70
2023-05-09T18:12:19.631Z,1.50
2023-05-09T18:14:49.372Z,1.92
2023-05-09T18:17:17.795Z,1.10
2023-05-09T18:19:46.182Z,1.58
2023-05-09T18:22:15.655Z,1.27
2023-05-09T18:24:44.146Z,1.13
2023-05-09T18:27:12.591Z,1.25
2023-05-09T18:29:40.869Z,1.55
2023-05-09T18:32:11.973Z,1.40
2023-05-09T18:34:40.305Z,1.40
2023-05-09T18:37:08.623Z,1.35
2023-05-09T18:39:37.354Z,1.52
2023-05-09T18:42:06.323Z,1.52
2023-05-09T18:44:34.724Z,0.98
2023-05-09T18:47:03.059Z,1.60
2023-05-09T18:49:32.768Z,1.35
2023-05-09T18:52:01.126Z,1.30
2023-05-09T18:54:29.460Z,1.17
2023-05-09T18:56:58.047Z,1.50
2023-05-09T18:59:26.407Z,1.20
2023-05-09T19:01:54.760Z,1.00
2023-05-09T19:04:23.203Z,0.95
2023-05-09T19:06:53.031Z,1.30
2023-05-09T19:09:21.410Z,1.27
2023-05-09T19:11:49.783Z,1.00
2023-05-09T19:14:18.371Z,1.00
2023-05-09T19:16:46.701Z,1.05
2023-05-09T19:19:15.736Z,1.40
2023-05-09T19:21:44.088Z,1.42
2023-05-09T19:24:13.805Z,1.42
2023-05-09T19:26:42.172Z,1.67
2023-05-09T19:29:10.514Z,1.70
2023-05-09T19:31:38.942Z,1.23
2023-05-09T19:34:07.586Z,1.00
2023-05-09T19:36:35.937Z,1.70
2023-05-09T19:39:05.265Z,1.38
2023-05-09T19:41:35.013Z,1.00
2023-05-09T19:44:03.317Z,1.30
2023-05-09T19:46:31.769Z,1.40
2023-05-09T19:49:00.238Z,1.52
2023-05-09T19:51:28.686Z,1.52
2023-05-09T19:53:57.051Z,1.35
2023-05-09T19:56:25.828Z,1.50
2023-05-09T19:58:55.513Z,1.30
2023-05-09T20:01:23.879Z,1.33
2023-05-09T20:03:52.689Z,1.10
2023-05-09T20:06:21.148Z,1.88
2023-05-09T20:08:51.595Z,1.20
2023-05-09T20:11:21.004Z,1.08
2023-05-09T20:13:49.379Z,1.85
2023-05-09T20:16:20.021Z,1.38
2023-05-09T20:18:49.989Z,1.35
2023-05-09T20:21:19.828Z,1.52
2023-05-09T20:23:48.497Z,1.05
2023-05-09T20:26:16.814Z,1.40
2023-05-09T20:28:45.376Z,1.20
2023-05-09T20:31:13.729Z,1.33
2023-05-09T20:33:43.421Z,1.30
2023-05-09T20:36:11.781Z,1.10
2023-05-09T20:38:40.136Z,1.00
2023-05-09T20:41:08.449Z,1.27
2023-05-09T20:43:36.825Z,1.10
2023-05-09T20:46:05.307Z,1.35
2023-05-09T20:48:33.723Z,1.20
2023-05-09T20:51:03.437Z,1.08
2023-05-09T20:53:32.523Z,1.30
2023-05-09T20:56:00.967Z,1.50
2023-05-09T20:58:31.218Z,1.67
2023-05-09T21:00:59.617Z,2.55
2023-05-09T21:03:28.085Z,1.20
2023-05-09T21:05:56.589Z,1.40
2023-05-09T21:08:27.120Z,2.10
2023-05-09T21:10:55.490Z,1.02
2023-05-09T21:13:23.885Z,1.35
2023-05-09T21:15:52.354Z,1.48
2023-05-09T21:18:20.996Z,1.77
2023-05-09T21:20:49.316Z,1.58
2023-05-09T21:23:18.519Z,1.85
2023-05-09T21:25:48.251Z,1.63
2023-05-09T21:28:17.392Z,1.60
2023-05-09T21:30:45.751Z,1.33
2023-05-09T21:33:14.101Z,1.27
2023-05-09T21:35:42.380Z,1.27
2023-05-09T21:38:10.723Z,1.00
2023-05-09T21:40:39.085Z,0.90
2023-05-09T21:43:09.027Z,0.57
2023-05-09T21:45:37.423Z,0.95
2023-05-09T21:48:05.951Z,1.92
2023-05-09T21:50:34.397Z,0.57
2023-05-09T21:53:03.377Z,0.55
2023-05-09T21:55:31.659Z,0.60
2023-05-09T21:57:59.979Z,0.22
2023-05-09T22:00:29.773Z,0.20
2023-05-09T22:02:58.180Z,0.15
2023-05-09T22:05:26.703Z,0.50
2023-05-09T22:07:54.971Z,0.50
2023-05-09T22:10:23.255Z,0.30
2023-05-09T22:12:51.644Z,0.30
2023-05-09T22:15:20.016Z,0.10
2023-05-09T22:17:49.783Z,0.20
2023-05-09T22:20:18.539Z,0.20
2023-05-09T22:22:47.120Z,0.40
2023-05-09T22:25:15.565Z,0.35
2023-05-09T22:27:43.915Z,0.22
2023-05-09T22:30:13.282Z,0.10
2023-05-09T22:32:41.979Z,0.20
2023-05-09T22:35:12.499Z,0.08
2023-05-09T22:37:40.868Z,0.20
2023-05-09T22:40:09.880Z,0.10
2023-05-09T22:42:38.206Z,0.10
2023-05-09T22:45:07.385Z,0.10
2023-05-09T22:47:35.893Z,0.20
2023-05-09T22:50:04.259Z,0.20
2023-05-09T22:52:33.980Z,0.15
2023-05-09T22:55:02.551Z,0.20
2023-05-09T22:57:30.971Z,0.20
2023-05-09T22:59:59.485Z,0.22
2023-05-09T23:02:27.903Z,0.30
2023-05-09T23:04:56.417Z,0.30
2023-05-09T23:07:24.681Z,0.25
2023-05-09T23:09:54.414Z,0.20
2023-05-09T23:12:23.104Z,0.10
2023-05-09T23:14:51.463Z,0.10
2023-05-09T23:17:19.840Z,0.10
2023-05-09T23:19:48.076Z,0.20
2023-05-09T23:22:17.885Z,0.10
2023-05-09T23:24:46.214Z,0.03
2023-05-09T23:27:15.920Z,0.40
2023-05-09T23:29:44.344Z,0.10
2023-05-09T23:32:12.693Z,0.20
2023-05-09T23:34:40.998Z,0.40
2023-05-09T23:37:09.267Z,0.10
2023-05-09T23:39:37.582Z,0.13
2023-05-09T23:42:05.962Z,0.10
2023-05-09T23:44:35.627Z,0.20
2023-05-09T23:47:04.052Z,0.15
2023-05-09T23:49:32.336Z,0.43
2023-05-09T23:52:00.648Z,0.43
2023-05-09T23:54:28.967Z,0.30
2023-05-09T23:56:57.728Z,0.32
2023-05-09T23:59:26.195Z,0.05
